sensor_id;sensor_type;location;lat;lon;timestamp;pressure;altitude;pressure_sealevel;temperature;humidity
48778;BME280;34578;0.000;0.000;2023-07-31T00:03:12;96842.19;;;18.24;62.08
48778;BME280;34578;0.000;0.000;2023-07-31T00:08:12;96840.47;;;18.26;62.30
48778;BME280;34578;0.000;0.000;2023-07-31T00:13:13;96835.41;;;18.29;62.15
48778;BME280;34578;0.000;0.000;2023-07-31T00:18:13;96826.97;;;18.27;62.32
48778;BME280;34578;0.000;0.000;2023-07-31T00:23:14;96824.44;;;18.28;62.26
48778;BME280;34578;0.000;0.000;2023-07-31T00:28:14;96821.91;;;18.27;62.47
48778;BME280;34578;0.000;0.000;2023-07-31T00:33:14;96812.59;;;18.26;62.45
48778;BME280;34578;0.000;0.000;2023-07-31T00:38:15;96812.59;;;18.24;62.38
48778;BME280;34578;0.000;0.000;2023-07-31T00:43:15;96812.59;;;18.26;62.42
48778;BME280;34578;0.000;0.000;2023-07-31T00:48:16;96804.16;;;18.22;62.62
48778;BME280;34578;0.000;0.000;2023-07-31T00:53:16;96804.97;;;18.23;62.74
48778;BME280;34578;0.000;0.000;2023-07-31T00:58:16;96805.84;;;18.23;62.78
48778;BME280;34578;0.000;0.000;2023-07-31T01:03:17;96815.13;;;18.23;62.79
48778;BME280;34578;0.000;0.000;2023-07-31T01:13:31;96796.53;;;18.18;63.06
48778;BME280;34578;0.000;0.000;2023-07-31T01:18:31;96771.19;;;18.12;63.10
48778;BME280;34578;0.000;0.000;2023-07-31T01:23:59;96793.16;;;18.16;62.98
48778;BME280;34578;0.000;0.000;2023-07-31T01:29:08;96782.16;;;18.12;63.05
48778;BME280;34578;0.000;0.000;2023-07-31T01:34:11;96788.06;;;18.10;62.99
48778;BME280;34578;0.000;0.000;2023-07-31T01:39:14;96780.47;;;18.02;62.89
48778;BME280;34578;0.000;0.000;2023-07-31T01:44:15;96786.34;;;18.06;63.09
48778;BME280;34578;0.000;0.000;2023-07-31T01:49:16;96772.84;;;18.04;62.94
48778;BME280;34578;0.000;0.000;2023-07-31T01:54:16;96757.66;;;18.01;62.90
48778;BME280;34578;0.000;0.000;2023-07-31T01:59:17;96755.09;;;17.96;62.71
48778;BME280;34578;0.000;0.000;2023-07-31T02:04:17;96745.81;;;17.98;62.64
48778;BME280;34578;0.000;0.000;2023-07-31T02:09:18;96738.22;;;17.91;62.52
48778;BME280;34578;0.000;0.000;2023-07-31T02:14:18;96743.28;;;17.91;62.68
48778;BME280;34578;0.000;0.000;2023-07-31T02:19:18;96751.72;;;17.90;62.31
48778;BME280;34578;0.000;0.000;2023-07-31T02:24:19;96733.13;;;17.89;62.10
48778;BME280;34578;0.000;0.000;2023-07-31T02:29:19;96735.69;;;17.91;61.88
48778;BME280;34578;0.000;0.000;2023-07-31T02:34:19;96727.19;;;17.80;61.75
48778;BME280;34578;0.000;0.000;2023-07-31T02:39:20;96734.84;;;17.92;61.12
48778;BME280;34578;0.000;0.000;2023-07-31T02:44:23;96728.94;;;17.90;60.88
48778;BME280;34578;0.000;0.000;2023-07-31T02:49:23;96731.47;;;17.90;60.91
48778;BME280;34578;0.000;0.000;2023-07-31T02:54:24;96737.34;;;17.86;61.15
48778;BME280;34578;0.000;0.000;2023-07-31T02:59:24;96733.13;;;17.89;61.03
48778;BME280;34578;0.000;0.000;2023-07-31T03:04:25;96748.31;;;17.86;60.75
48778;BME280;34578;0.000;0.000;2023-07-31T03:09:25;96749.16;;;17.79;60.41
48778;BME280;34578;0.000;0.000;2023-07-31T03:14:26;96737.31;;;17.69;60.47
48778;BME280;34578;0.000;0.000;2023-07-31T03:19:26;96755.09;;;17.87;60.59
48778;BME280;34578;0.000;0.000;2023-07-31T03:24:28;96754.19;;;17.81;60.36
48778;BME280;34578;0.000;0.000;2023-07-31T03:29:28;96747.44;;;17.77;60.08
48778;BME280;34578;0.000;0.000;2023-07-31T03:34:29;96744.06;;;17.81;59.82
48778;BME280;34578;0.000;0.000;2023-07-31T03:39:29;96740.72;;;17.77;60.03
48778;BME280;34578;0.000;0.000;2023-07-31T03:44:30;96736.38;;;17.49;61.15
48778;BME280;34578;0.000;0.000;2023-07-31T03:49:30;96733.88;;;17.60;61.26
48778;BME280;34578;0.000;0.000;2023-07-31T03:54:31;96734.66;;;17.47;61.11
48778;BME280;34578;0.000;0.000;2023-07-31T03:59:31;96732.13;;;17.47;61.08
48778;BME280;34578;0.000;0.000;2023-07-31T04:04:31;96742.25;;;17.44;61.43
48778;BME280;34578;0.000;0.000;2023-07-31T04:09:32;96735.44;;;17.34;61.71
48778;BME280;34578;0.000;0.000;2023-07-31T04:14:32;96738.88;;;17.42;61.49
48778;BME280;34578;0.000;0.000;2023-07-31T04:19:32;96738.09;;;17.56;61.31
48778;BME280;34578;0.000;0.000;2023-07-31T04:24:33;96734.84;;;17.98;59.89
48778;BME280;34578;0.000;0.000;2023-07-31T04:29:33;96727.25;;;18.13;59.57
48778;BME280;34578;0.000;0.000;2023-07-31T04:34:34;96727.25;;;18.22;59.31
48778;BME280;34578;0.000;0.000;2023-07-31T04:39:34;96727.31;;;18.29;59.27
48778;BME280;34578;0.000;0.000;2023-07-31T04:44:35;96738.28;;;18.30;59.04
48778;BME280;34578;0.000;0.000;2023-07-31T04:49:35;96729.84;;;18.32;58.86
48778;BME280;34578;0.000;0.000;2023-07-31T04:54:36;96740.84;;;18.58;58.71
48778;BME280;34578;0.000;0.000;2023-07-31T04:59:36;96729.84;;;18.79;58.32
48778;BME280;34578;0.000;0.000;2023-07-31T05:04:37;96724.75;;;18.88;58.15
48778;BME280;34578;0.000;0.000;2023-07-31T05:09:37;96738.28;;;18.99;58.07
48778;BME280;34578;0.000;0.000;2023-07-31T05:14:39;96734.03;;;19.01;58.26
48778;BME280;34578;0.000;0.000;2023-07-31T05:19:39;96734.03;;;19.04;58.14
48778;BME280;34578;0.000;0.000;2023-07-31T05:24:40;96739.94;;;19.13;57.99
48778;BME280;34578;0.000;0.000;2023-07-31T05:29:40;96741.63;;;19.26;58.48
48778;BME280;34578;0.000;0.000;2023-07-31T05:34:41;96738.25;;;19.26;58.35
48778;BME280;34578;0.000;0.000;2023-07-31T05:39:42;96745.03;;;19.28;57.78
48778;BME280;34578;0.000;0.000;2023-07-31T05:44:42;96734.00;;;19.26;58.19
48778;BME280;34578;0.000;0.000;2023-07-31T05:49:43;96740.78;;;19.29;58.19
48778;BME280;34578;0.000;0.000;2023-07-31T05:54:44;96747.53;;;19.30;58.14
48778;BME280;34578;0.000;0.000;2023-07-31T05:59:46;96723.88;;;19.23;58.34
48778;BME280;34578;0.000;0.000;2023-07-31T06:04:46;96732.31;;;19.30;58.41
48778;BME280;34578;0.000;0.000;2023-07-31T06:09:46;96728.91;;;19.34;58.28
48778;BME280;34578;0.000;0.000;2023-07-31T06:14:47;96711.97;;;19.39;58.18
48778;BME280;34578;0.000;0.000;2023-07-31T06:19:47;96706.88;;;19.42;58.04
48778;BME280;34578;0.000;0.000;2023-07-31T06:24:48;96704.28;;;19.52;58.95
48778;BME280;34578;0.000;0.000;2023-07-31T06:29:48;96701.72;;;19.58;59.00
48778;BME280;34578;0.000;0.000;2023-07-31T06:34:49;96699.19;;;19.52;58.47
48778;BME280;34578;0.000;0.000;2023-07-31T06:39:49;96698.38;;;19.52;58.39
48778;BME280;34578;0.000;0.000;2023-07-31T06:44:50;96689.94;;;19.50;58.43
48778;BME280;34578;0.000;0.000;2023-07-31T06:49:50;96706.84;;;19.51;58.48
48778;BME280;34578;0.000;0.000;2023-07-31T06:55:16;96708.53;;;19.52;58.46
48778;BME280;34578;0.000;0.000;2023-07-31T07:00:19;96728.84;;;19.52;58.80
48778;BME280;34578;0.000;0.000;2023-07-31T07:05:19;96716.16;;;19.52;58.70
48778;BME280;34578;0.000;0.000;2023-07-31T07:10:20;96729.69;;;19.54;58.53
48778;BME280;34578;0.000;0.000;2023-07-31T07:15:20;96727.13;;;19.60;59.85
48778;BME280;34578;0.000;0.000;2023-07-31T07:20:21;96710.97;;;19.70;59.78
48778;BME280;34578;0.000;0.000;2023-07-31T07:25:21;96696.59;;;19.67;59.74
48778;BME280;34578;0.000;0.000;2023-07-31T07:30:22;96698.31;;;19.64;58.98
48778;BME280;34578;0.000;0.000;2023-07-31T07:35:24;96687.31;;;19.62;58.80
48778;BME280;34578;0.000;0.000;2023-07-31T07:40:24;96679.69;;;19.62;58.85
48778;BME280;34578;0.000;0.000;2023-07-31T07:45:25;96681.41;;;19.60;58.96
48778;BME280;34578;0.000;0.000;2023-07-31T07:50:25;96676.34;;;19.60;59.02
48778;BME280;34578;0.000;0.000;2023-07-31T07:55:25;96679.69;;;19.62;59.00
48778;BME280;34578;0.000;0.000;2023-07-31T08:00:26;96683.09;;;19.61;59.18
48778;BME280;34578;0.000;0.000;2023-07-31T08:05:26;96684.78;;;19.62;58.99
48778;BME280;34578;0.000;0.000;2023-07-31T08:10:27;96689.81;;;19.71;61.25
48778;BME280;34578;0.000;0.000;2023-07-31T08:15:30;96686.38;;;19.79;60.74
48778;BME280;34578;0.000;0.000;2023-07-31T08:20:30;96677.91;;;19.79;60.30
48778;BME280;34578;0.000;0.000;2023-07-31T08:25:30;96672.84;;;19.73;59.37
48778;BME280;34578;0.000;0.000;2023-07-31T08:30:36;96672.03;;;19.69;59.10
48778;BME280;34578;0.000;0.000;2023-07-31T08:35:37;96664.44;;;19.68;59.33
48778;BME280;34578;0.000;0.000;2023-07-31T08:40:37;96667.84;;;19.67;59.50
48778;BME280;34578;0.000;0.000;2023-07-31T08:45:41;96678.81;;;19.67;59.47
48778;BME280;34578;0.000;0.000;2023-07-31T08:50:42;96669.50;;;19.68;59.50
48778;BME280;34578;0.000;0.000;2023-07-31T08:55:44;96669.50;;;19.68;59.50
48778;BME280;34578;0.000;0.000;2023-07-31T09:00:46;96661.91;;;19.68;59.31
48778;BME280;34578;0.000;0.000;2023-07-31T09:05:47;96668.56;;;19.81;60.72
48778;BME280;34578;0.000;0.000;2023-07-31T09:10:48;96655.84;;;19.87;60.85
48778;BME280;34578;0.000;0.000;2023-07-31T09:15:50;96655.00;;;19.82;60.06
48778;BME280;34578;0.000;0.000;2023-07-31T09:21:06;96642.34;;;19.77;59.50
48778;BME280;34578;0.000;0.000;2023-07-31T09:26:07;96620.38;;;19.75;59.82
48778;BME280;34578;0.000;0.000;2023-07-31T09:31:07;96613.56;;;19.74;59.69
48778;BME280;34578;0.000;0.000;2023-07-31T09:36:08;96616.97;;;19.73;59.72
48778;BME280;34578;0.000;0.000;2023-07-31T09:41:08;96603.41;;;19.74;59.92
48778;BME280;34578;0.000;0.000;2023-07-31T09:46:13;96582.34;;;19.66;59.66
48778;BME280;34578;0.000;0.000;2023-07-31T09:51:17;96591.56;;;19.73;59.74
48778;BME280;34578;0.000;0.000;2023-07-31T09:56:19;96583.09;;;19.74;59.91
48778;BME280;34578;0.000;0.000;2023-07-31T10:01:21;96568.59;;;19.88;61.07
48778;BME280;34578;0.000;0.000;2023-07-31T10:06:24;96569.41;;;19.93;60.99
48778;BME280;34578;0.000;0.000;2023-07-31T10:11:27;96564.38;;;19.87;60.54
48778;BME280;34578;0.000;0.000;2023-07-31T10:16:29;96565.28;;;19.81;59.87
48778;BME280;34578;0.000;0.000;2023-07-31T10:21:31;96543.28;;;19.79;59.88
48778;BME280;34578;0.000;0.000;2023-07-31T10:26:35;96528.88;;;19.78;60.00
48778;BME280;34578;0.000;0.000;2023-07-31T10:31:37;96517.03;;;19.77;60.08
48778;BME280;34578;0.000;0.000;2023-07-31T10:36:38;96533.09;;;19.77;59.99
48778;BME280;34578;0.000;0.000;2023-07-31T10:41:42;96526.34;;;19.78;60.03
48778;BME280;34578;0.000;0.000;2023-07-31T10:46:45;96529.75;;;19.77;60.07
48778;BME280;34578;0.000;0.000;2023-07-31T10:51:47;96532.22;;;19.86;60.60
48778;BME280;34578;0.000;0.000;2023-07-31T10:56:50;96534.66;;;19.95;60.91
48778;BME280;34578;0.000;0.000;2023-07-31T11:01:54;96510.97;;;19.91;60.87
48778;BME280;34578;0.000;0.000;2023-07-31T11:07:01;96519.47;;;19.89;59.93
48778;BME280;34578;0.000;0.000;2023-07-31T11:12:03;96510.22;;;19.82;60.33
48778;BME280;34578;0.000;0.000;2023-07-31T11:17:07;96517.81;;;19.83;60.66
48778;BME280;34578;0.000;0.000;2023-07-31T11:22:08;96511.06;;;19.82;60.33
48778;BME280;34578;0.000;0.000;2023-07-31T11:27:08;96517.00;;;19.83;60.16
48778;BME280;34578;0.000;0.000;2023-07-31T11:32:16;96518.69;;;19.82;60.27
48778;BME280;34578;0.000;0.000;2023-07-31T11:37:17;96505.13;;;19.82;60.03
48778;BME280;34578;0.000;0.000;2023-07-31T11:42:17;96505.13;;;19.82;60.05
48778;BME280;34578;0.000;0.000;2023-07-31T11:47:18;96510.94;;;19.94;61.71
48778;BME280;34578;0.000;0.000;2023-07-31T11:52:18;96499.88;;;20.03;61.32
48778;BME280;34578;0.000;0.000;2023-07-31T11:57:20;96501.59;;;19.99;60.65
48778;BME280;34578;0.000;0.000;2023-07-31T12:02:21;96496.59;;;19.92;60.09
48778;BME280;34578;0.000;0.000;2023-07-31T12:07:24;96472.97;;;19.84;60.17
48778;BME280;34578;0.000;0.000;2023-07-31T12:12:25;96472.91;;;19.87;60.00
48778;BME280;34578;0.000;0.000;2023-07-31T12:17:26;96444.09;;;19.86;60.14
48778;BME280;34578;0.000;0.000;2023-07-31T12:22:27;96443.28;;;19.86;60.22
48778;BME280;34578;0.000;0.000;2023-07-31T12:27:33;96420.44;;;19.84;60.24
48778;BME280;34578;0.000;0.000;2023-07-31T12:32:33;96422.16;;;19.84;60.29
48778;BME280;34578;0.000;0.000;2023-07-31T12:37:34;96419.56;;;19.87;60.79
48778;BME280;34578;0.000;0.000;2023-07-31T12:42:34;96420.28;;;20.01;61.40
48778;BME280;34578;0.000;0.000;2023-07-31T12:47:34;96423.63;;;20.06;61.15
48778;BME280;34578;0.000;0.000;2023-07-31T12:52:35;96406.69;;;20.02;60.67
48778;BME280;34578;0.000;0.000;2023-07-31T12:57:35;96396.63;;;19.93;60.26
48778;BME280;34578;0.000;0.000;2023-07-31T13:02:35;96398.38;;;19.91;60.21
48778;BME280;34578;0.000;0.000;2023-07-31T13:07:36;96391.56;;;19.90;60.78
48778;BME280;34578;0.000;0.000;2023-07-31T13:12:36;96394.97;;;19.92;60.51
48778;BME280;34578;0.000;0.000;2023-07-31T13:17:37;96401.72;;;19.93;60.40
48778;BME280;34578;0.000;0.000;2023-07-31T13:22:37;96391.56;;;19.93;60.55
48778;BME280;34578;0.000;0.000;2023-07-31T13:27:38;96380.59;;;19.89;60.52
48778;BME280;34578;0.000;0.000;2023-07-31T13:32:38;96386.38;;;20.02;61.63
48778;BME280;34578;0.000;0.000;2023-07-31T13:37:38;96382.91;;;20.12;61.47
48778;BME280;34578;0.000;0.000;2023-07-31T13:42:39;96374.47;;;20.08;60.62
48778;BME280;34578;0.000;0.000;2023-07-31T13:47:39;96367.72;;;20.06;60.69
48778;BME280;34578;0.000;0.000;2023-07-31T13:52:40;96353.34;;;20.02;60.73
48778;BME280;34578;0.000;0.000;2023-07-31T13:57:40;96342.34;;;20.00;60.87
48778;BME280;34578;0.000;0.000;2023-07-31T14:02:40;96342.34;;;20.00;60.80
48778;BME280;34578;0.000;0.000;2023-07-31T14:07:41;96341.50;;;20.01;60.74
48778;BME280;34578;0.000;0.000;2023-07-31T14:12:41;96338.94;;;20.01;60.70
48778;BME280;34578;0.000;0.000;2023-07-31T14:17:41;96333.00;;;20.00;60.88
48778;BME280;34578;0.000;0.000;2023-07-31T14:22:42;96332.19;;;20.00;60.82
48778;BME280;34578;0.000;0.000;2023-07-31T14:27:42;96329.53;;;20.12;61.63
48778;BME280;34578;0.000;0.000;2023-07-31T14:32:42;96326.91;;;20.18;61.95
48778;BME280;34578;0.000;0.000;2023-07-31T14:37:44;96321.91;;;20.12;61.19
48778;BME280;34578;0.000;0.000;2023-07-31T14:42:44;96303.44;;;19.95;60.72
48778;BME280;34578;0.000;0.000;2023-07-31T14:47:45;96316.03;;;20.07;61.92
48778;BME280;34578;0.000;0.000;2023-07-31T14:52:45;96309.28;;;20.04;62.60
48778;BME280;34578;0.000;0.000;2023-07-31T14:57:45;96311.84;;;20.04;62.75
48778;BME280;34578;0.000;0.000;2023-07-31T15:02:46;96310.13;;;20.05;62.95
48778;BME280;34578;0.000;0.000;2023-07-31T15:07:46;96301.63;;;20.06;63.11
48778;BME280;34578;0.000;0.000;2023-07-31T15:12:46;96297.34;;;20.12;63.43
48778;BME280;34578;0.000;0.000;2023-07-31T15:17:47;96287.91;;;20.19;63.45
48778;BME280;34578;0.000;0.000;2023-07-31T15:22:47;96284.31;;;20.35;63.07
48778;BME280;34578;0.000;0.000;2023-07-31T15:27:48;96282.50;;;20.41;63.12
48778;BME280;34578;0.000;0.000;2023-07-31T15:32:49;96273.94;;;20.46;63.14
48778;BME280;34578;0.000;0.000;2023-07-31T15:37:50;96275.63;;;20.47;63.17
48778;BME280;34578;0.000;0.000;2023-07-31T15:42:50;96270.50;;;20.50;63.16
48778;BME280;34578;0.000;0.000;2023-07-31T15:47:50;96256.94;;;20.50;63.12
48778;BME280;34578;0.000;0.000;2023-07-31T15:52:53;96255.19;;;20.55;63.22
48778;BME280;34578;0.000;0.000;2023-07-31T15:57:53;96257.72;;;20.55;63.17
48778;BME280;34578;0.000;0.000;2023-07-31T16:02:54;96262.75;;;20.59;63.25
48778;BME280;34578;0.000;0.000;2023-07-31T16:07:54;96272.91;;;20.59;63.18
48778;BME280;34578;0.000;0.000;2023-07-31T16:12:54;96268.63;;;20.61;63.19
48778;BME280;34578;0.000;0.000;2023-07-31T16:17:55;96278.66;;;20.72;63.04
48778;BME280;34578;0.000;0.000;2023-07-31T16:22:55;96278.66;;;20.70;62.32
48778;BME280;34578;0.000;0.000;2023-07-31T16:27:58;96272.63;;;20.76;63.14
48778;BME280;34578;0.000;0.000;2023-07-31T16:32:58;96264.19;;;20.75;63.40
48778;BME280;34578;0.000;0.000;2023-07-31T16:37:59;96247.09;;;20.82;63.01
48778;BME280;34578;0.000;0.000;2023-07-31T16:42:59;96246.31;;;20.78;62.57
48778;BME280;34578;0.000;0.000;2023-07-31T16:48:01;96239.53;;;20.77;63.13
48778;BME280;34578;0.000;0.000;2023-07-31T16:53:02;96217.59;;;20.72;62.71
48778;BME280;34578;0.000;0.000;2023-07-31T16:58:02;96222.53;;;20.79;62.51
48778;BME280;34578;0.000;0.000;2023-07-31T17:03:03;96218.31;;;20.78;63.10
48778;BME280;34578;0.000;0.000;2023-07-31T17:08:03;96214.13;;;20.76;63.05
48778;BME280;34578;0.000;0.000;2023-07-31T17:13:04;96195.50;;;20.74;62.84
48778;BME280;34578;0.000;0.000;2023-07-31T17:18:04;96187.00;;;20.73;62.94
48778;BME280;34578;0.000;0.000;2023-07-31T17:23:04;96190.41;;;20.75;63.62
48778;BME280;34578;0.000;0.000;2023-07-31T17:28:05;96199.75;;;20.73;63.46
48778;BME280;34578;0.000;0.000;2023-07-31T17:33:05;96212.47;;;20.73;63.47
48778;BME280;34578;0.000;0.000;2023-07-31T17:38:06;96219.25;;;20.74;63.53
48778;BME280;34578;0.000;0.000;2023-07-31T17:43:06;96217.53;;;20.73;63.31
48778;BME280;34578;0.000;0.000;2023-07-31T17:48:07;96205.75;;;20.71;63.09
48778;BME280;34578;0.000;0.000;2023-07-31T17:53:08;96204.00;;;20.74;62.75
48778;BME280;34578;0.000;0.000;2023-07-31T17:58:09;96202.25;;;20.76;63.27
48778;BME280;34578;0.000;0.000;2023-07-31T18:03:09;96204.78;;;20.76;62.99
48778;BME280;34578;0.000;0.000;2023-07-31T18:08:11;96213.31;;;20.74;62.91
48778;BME280;34578;0.000;0.000;2023-07-31T18:13:12;96193.91;;;20.68;63.17
48778;BME280;34578;0.000;0.000;2023-07-31T18:18:13;96194.72;;;20.69;62.84
48778;BME280;34578;0.000;0.000;2023-07-31T18:23:14;96201.53;;;20.68;62.56
48778;BME280;34578;0.000;0.000;2023-07-31T18:28:15;96197.25;;;20.70;62.94
48778;BME280;34578;0.000;0.000;2023-07-31T18:33:15;96185.41;;;20.69;62.73
48778;BME280;34578;0.000;0.000;2023-07-31T18:38:15;96182.88;;;20.69;62.70
48778;BME280;34578;0.000;0.000;2023-07-31T18:43:16;96175.22;;;20.69;62.72
48778;BME280;34578;0.000;0.000;2023-07-31T18:48:16;96187.00;;;20.73;62.75
48778;BME280;34578;0.000;0.000;2023-07-31T18:53:16;96192.16;;;20.70;62.36
48778;BME280;34578;0.000;0.000;2023-07-31T18:58:18;96193.91;;;20.68;62.64
48778;BME280;34578;0.000;0.000;2023-07-31T19:03:18;96157.53;;;20.63;62.51
48778;BME280;34578;0.000;0.000;2023-07-31T19:08:19;96142.31;;;20.60;62.61
48778;BME280;34578;0.000;0.000;2023-07-31T19:13:19;96151.63;;;20.61;62.59
48778;BME280;34578;0.000;0.000;2023-07-31T19:18:19;96160.13;;;20.62;62.27
48778;BME280;34578;0.000;0.000;2023-07-31T19:23:20;96149.97;;;20.60;62.26
48778;BME280;34578;0.000;0.000;2023-07-31T19:28:23;96147.41;;;20.60;62.33
48778;BME280;34578;0.000;0.000;2023-07-31T19:33:24;96154.19;;;20.61;62.28
48778;BME280;34578;0.000;0.000;2023-07-31T19:38:24;96154.97;;;20.63;63.13
48778;BME280;34578;0.000;0.000;2023-07-31T19:43:25;96134.59;;;20.66;62.28
48778;BME280;34578;0.000;0.000;2023-07-31T19:48:25;96133.81;;;20.63;62.23
48778;BME280;34578;0.000;0.000;2023-07-31T19:53:26;96146.53;;;20.61;62.28
48778;BME280;34578;0.000;0.000;2023-07-31T19:58:26;96134.72;;;20.57;62.07
48778;BME280;34578;0.000;0.000;2023-07-31T20:03:27;96134.72;;;20.59;62.16
48778;BME280;34578;0.000;0.000;2023-07-31T20:08:27;96134.78;;;20.54;61.98
48778;BME280;34578;0.000;0.000;2023-07-31T20:13:29;96132.31;;;20.51;61.98
48778;BME280;34578;0.000;0.000;2023-07-31T20:18:30;96117.88;;;20.53;61.98
48778;BME280;34578;0.000;0.000;2023-07-31T20:23:31;96107.69;;;20.53;61.92
48778;BME280;34578;0.000;0.000;2023-07-31T20:28:31;96099.19;;;20.54;63.07
48778;BME280;34578;0.000;0.000;2023-07-31T20:33:34;96115.16;;;20.62;62.72
48778;BME280;34578;0.000;0.000;2023-07-31T20:38:34;96105.94;;;20.57;61.93
48778;BME280;34578;0.000;0.000;2023-07-31T20:43:35;96107.63;;;20.56;61.88
48778;BME280;34578;0.000;0.000;2023-07-31T20:48:35;96101.72;;;20.54;61.84
48778;BME280;34578;0.000;0.000;2023-07-31T20:53:35;96090.84;;;20.46;61.82
48778;BME280;34578;0.000;0.000;2023-07-31T20:58:37;96116.25;;;20.49;62.06
48778;BME280;34578;0.000;0.000;2023-07-31T21:03:38;96133.09;;;20.55;62.21
48778;BME280;34578;0.000;0.000;2023-07-31T21:08:38;96120.47;;;20.50;62.08
48778;BME280;34578;0.000;0.000;2023-07-31T21:13:39;96117.94;;;20.50;61.95
48778;BME280;34578;0.000;0.000;2023-07-31T21:18:39;96108.38;;;20.63;64.04
48778;BME280;34578;0.000;0.000;2023-07-31T21:23:39;96099.81;;;20.65;65.32
48778;BME280;34578;0.000;0.000;2023-07-31T21:28:40;96090.66;;;20.58;62.13
48778;BME280;34578;0.000;0.000;2023-07-31T21:33:41;96089.88;;;20.55;61.67
48778;BME280;34578;0.000;0.000;2023-07-31T21:38:42;96087.34;;;20.53;62.13
48778;BME280;34578;0.000;0.000;2023-07-31T21:43:42;96095.91;;;20.49;61.72
48778;BME280;34578;0.000;0.000;2023-07-31T21:48:43;96090.81;;;20.49;61.94
48778;BME280;34578;0.000;0.000;2023-07-31T21:53:43;96072.16;;;20.49;61.62
48778;BME280;34578;0.000;0.000;2023-07-31T21:58:43;96067.09;;;20.47;61.88
48778;BME280;34578;0.000;0.000;2023-07-31T22:03:44;96054.38;;;20.47;61.75
48778;BME280;34578;0.000;0.000;2023-07-31T22:08:44;96047.44;;;20.57;64.64
48778;BME280;34578;0.000;0.000;2023-07-31T22:13:44;96046.47;;;20.62;65.63
48778;BME280;34578;0.000;0.000;2023-07-31T22:18:45;96042.41;;;20.54;61.96
48778;BME280;34578;0.000;0.000;2023-07-31T22:23:45;96027.28;;;20.48;61.63
48778;BME280;34578;0.000;0.000;2023-07-31T22:28:46;96012.00;;;20.48;61.78
48778;BME280;34578;0.000;0.000;2023-07-31T22:33:46;95981.56;;;20.45;61.59
48778;BME280;34578;0.000;0.000;2023-07-31T22:38:46;95973.06;;;20.46;61.61
48778;BME280;34578;0.000;0.000;2023-07-31T22:43:47;95950.13;;;20.47;61.60
48778;BME280;34578;0.000;0.000;2023-07-31T22:48:47;95956.94;;;20.47;61.59
48778;BME280;34578;0.000;0.000;2023-07-31T22:53:48;95946.78;;;20.45;61.52
48778;BME280;34578;0.000;0.000;2023-07-31T22:58:48;95943.16;;;20.57;64.38
48778;BME280;34578;0.000;0.000;2023-07-31T23:03:48;95930.34;;;20.63;66.01
48778;BME280;34578;0.000;0.000;2023-07-31T23:08:49;95930.44;;;20.57;62.08
48778;BME280;34578;0.000;0.000;2023-07-31T23:13:49;95936.50;;;20.51;61.14
48778;BME280;34578;0.000;0.000;2023-07-31T23:18:50;95936.53;;;20.48;61.67
48778;BME280;34578;0.000;0.000;2023-07-31T23:23:50;95924.72;;;20.47;61.67
48778;BME280;34578;0.000;0.000;2023-07-31T23:28:50;95910.41;;;20.43;61.48
48778;BME280;34578;0.000;0.000;2023-07-31T23:33:51;95906.09;;;20.45;61.62
48778;BME280;34578;0.000;0.000;2023-07-31T23:38:51;95882.34;;;20.46;61.65
48778;BME280;34578;0.000;0.000;2023-07-31T23:43:53;95881.53;;;20.46;61.34
48778;BME280;34578;0.000;0.000;2023-07-31T23:48:54;95867.75;;;20.56;65.00
48778;BME280;34578;0.000;0.000;2023-07-31T23:53:54;95862.53;;;20.62;67.09
48778;BME280;34578;0.000;0.000;2023-07-31T23:58:55;95851.50;;;20.61;63.47
